createdAt,value
2023-03-31T00:02:13.499Z,99953.72
2023-03-31T00:04:46.483Z,99956.13
2023-03-31T00:07:22.196Z,99950.94
2023-03-31T00:10:03.614Z,99942.16
2023-03-31T00:12:37.189Z,99941.72
2023-03-31T00:15:07.371Z,99938.94
2023-03-31T00:17:36.741Z,99957.00
2023-03-31T00:20:09.133Z,99943.53
2023-03-31T00:22:42.469Z,99945.75
2023-03-31T00:25:11.882Z,99936.53
2023-03-31T00:27:44.278Z,99945.56
2023-03-31T00:30:15.746Z,99939.72
2023-03-31T00:32:44.809Z,99929.94
2023-03-31T00:35:14.073Z,99931.22
2023-03-31T00:37:46.046Z,99899.06
2023-03-31T00:40:15.357Z,99928.44
2023-03-31T00:42:46.501Z,99915.09
2023-03-31T00:45:29.167Z,99917.16
2023-03-31T00:48:10.522Z,99921.09
2023-03-31T00:50:51.432Z,99907.94
2023-03-31T00:53:26.340Z,99906.06
2023-03-31T00:56:00.370Z,99910.44
2023-03-31T00:58:29.342Z,99878.19
2023-03-31T01:01:00.202Z,99904.16
2023-03-31T01:03:30.687Z,99890.34
2023-03-31T01:06:03.857Z,99905.09
2023-03-31T01:08:36.714Z,99904.41
2023-03-31T01:11:10.130Z,99902.13
2023-03-31T01:13:41.688Z,99904.16
2023-03-31T01:16:11.546Z,99897.34
2023-03-31T01:18:40.931Z,99862.78
2023-03-31T01:21:45.651Z,99870.13
2023-03-31T01:24:50.033Z,99856.66
2023-03-31T01:27:44.409Z,99873.81
2023-03-31T01:31:04.728Z,99872.50
2023-03-31T01:34:10.498Z,99870.06
2023-03-31T01:37:19.141Z,99865.44
2023-03-31T01:40:25.831Z,99871.16
2023-03-31T01:43:00.432Z,99860.91
2023-03-31T01:45:40.992Z,99856.53
2023-03-31T01:48:14.846Z,99854.53
2023-03-31T01:50:48.405Z,99843.03
2023-03-31T01:53:25.365Z,99847.34
2023-03-31T01:56:03.613Z,99849.56
2023-03-31T01:58:37.080Z,99840.63
2023-03-31T02:01:13.943Z,99826.28
2023-03-31T02:03:51.217Z,99818.47
2023-03-31T02:06:25.148Z,99830.06
2023-03-31T02:08:59.748Z,99817.66
2023-03-31T02:11:33.687Z,99793.94
2023-03-31T02:14:06.013Z,99791.31
2023-03-31T02:16:42.079Z,99814.47
2023-03-31T02:19:14.156Z,99814.06
2023-03-31T02:21:43.960Z,99808.56
2023-03-31T02:24:16.170Z,99776.03
2023-03-31T02:26:56.550Z,99782.72
2023-03-31T02:29:26.395Z,99807.84
2023-03-31T02:32:02.486Z,99775.09
2023-03-31T02:34:32.252Z,99797.47
2023-03-31T02:37:01.507Z,99786.13
2023-03-31T02:39:34.707Z,99703.09
2023-03-31T02:42:08.156Z,99795.16
2023-03-31T02:44:38.285Z,99782.53
2023-03-31T02:47:20.627Z,99755.06
2023-03-31T02:49:52.773Z,99705.41
2023-03-31T02:52:47.903Z,99787.84
2023-03-31T02:55:37.809Z,99762.81
2023-03-31T02:58:43.614Z,99791.09
2023-03-31T03:01:45.179Z,99784.31
2023-03-31T03:04:35.334Z,99780.19
2023-03-31T03:07:13.122Z,99768.53
2023-03-31T03:09:53.557Z,99775.53
2023-03-31T03:12:26.956Z,99759.16
2023-03-31T03:15:03.840Z,99758.66
2023-03-31T03:17:39.456Z,99787.84
2023-03-31T03:20:10.728Z,99787.91
2023-03-31T03:22:41.250Z,99778.19
2023-03-31T03:25:13.043Z,99766.63
2023-03-31T03:27:42.292Z,99725.13
2023-03-31T03:30:15.456Z,99755.75
2023-03-31T03:32:44.552Z,99768.13
2023-03-31T03:35:13.598Z,99739.94
2023-03-31T03:37:43.115Z,99745.66
2023-03-31T03:40:12.852Z,99758.59
2023-03-31T03:42:41.935Z,99761.13
2023-03-31T03:45:15.085Z,99748.88
2023-03-31T03:47:44.359Z,99763.88
2023-03-31T03:50:16.196Z,99755.22
2023-03-31T03:52:45.900Z,99753.19
2023-03-31T03:55:20.113Z,99754.56
2023-03-31T03:57:49.337Z,99744.81
2023-03-31T04:00:20.381Z,99749.81
2023-03-31T04:02:49.446Z,99729.78
2023-03-31T04:05:19.244Z,99747.78
2023-03-31T04:07:51.207Z,99750.41
2023-03-31T04:10:20.749Z,99707.53
2023-03-31T04:12:49.887Z,99745.88
2023-03-31T04:15:20.750Z,99756.16
2023-03-31T04:17:51.119Z,99702.38
2023-03-31T04:20:21.599Z,99712.84
2023-03-31T04:22:50.782Z,99737.59
2023-03-31T04:25:19.942Z,99731.38
2023-03-31T04:27:54.946Z,99711.34
2023-03-31T04:30:31.103Z,99724.81
2023-03-31T04:33:04.361Z,99719.28
2023-03-31T04:35:49.825Z,99692.81
2023-03-31T04:38:19.914Z,99700.88
2023-03-31T04:40:54.606Z,99717.78
2023-03-31T04:43:24.123Z,99718.09
2023-03-31T04:45:57.205Z,99709.63
2023-03-31T04:48:27.533Z,99715.09
2023-03-31T04:50:56.751Z,99708.06
2023-03-31T04:53:26.220Z,99692.41
2023-03-31T04:55:57.574Z,99700.50
2023-03-31T04:58:28.912Z,99702.56
2023-03-31T05:00:59.208Z,99666.31
2023-03-31T05:03:36.649Z,99694.88
2023-03-31T05:06:06.601Z,99686.03
2023-03-31T05:08:35.781Z,99692.66
2023-03-31T05:11:06.927Z,99692.38
2023-03-31T05:13:36.093Z,99686.00
2023-03-31T05:16:12.420Z,99645.50
2023-03-31T05:18:41.851Z,99687.44
2023-03-31T05:21:16.106Z,99641.66
2023-03-31T05:23:47.693Z,99674.34
2023-03-31T05:26:18.039Z,99585.75
2023-03-31T05:28:47.650Z,99503.50
2023-03-31T05:31:19.571Z,99665.47
2023-03-31T05:33:52.072Z,99667.25
2023-03-31T05:36:24.319Z,99670.63
2023-03-31T05:38:55.720Z,99673.69
2023-03-31T05:41:28.158Z,99612.06
2023-03-31T05:43:57.563Z,99641.44
2023-03-31T05:46:28.337Z,99635.44
2023-03-31T05:48:58.870Z,99525.63
2023-03-31T05:51:28.906Z,99617.28
2023-03-31T05:53:58.556Z,99619.69
2023-03-31T05:56:27.884Z,99604.88
2023-03-31T05:59:05.240Z,99582.81
2023-03-31T06:01:40.589Z,99611.53
2023-03-31T06:04:09.799Z,99618.47
2023-03-31T06:06:39.684Z,99453.50
2023-03-31T06:09:09.222Z,99623.94
2023-03-31T06:11:41.309Z,99560.66
2023-03-31T06:14:10.884Z,99494.94
2023-03-31T06:16:41.568Z,99577.88
2023-03-31T06:19:11.076Z,99580.81
2023-03-31T06:21:40.053Z,99596.63
2023-03-31T06:24:14.670Z,99592.38
2023-03-31T06:26:43.820Z,99612.47
2023-03-31T06:29:13.335Z,99620.00
2023-03-31T06:31:46.430Z,99622.38
2023-03-31T06:34:17.306Z,99586.31
2023-03-31T06:36:48.981Z,99581.94
2023-03-31T06:39:18.569Z,99601.28
2023-03-31T06:41:50.592Z,99599.59
2023-03-31T06:44:30.033Z,99600.59
2023-03-31T06:47:00.870Z,99594.09
2023-03-31T06:49:30.552Z,99586.84
2023-03-31T06:52:00.494Z,99586.13
2023-03-31T06:54:30.200Z,99585.91
2023-03-31T06:57:00.930Z,99582.88
2023-03-31T06:59:30.735Z,99475.09
2023-03-31T07:02:01.240Z,99579.44
2023-03-31T07:04:30.713Z,99566.84
2023-03-31T07:07:00.335Z,99542.88
2023-03-31T07:09:29.717Z,99572.00
2023-03-31T07:11:59.123Z,99568.78
2023-03-31T07:14:28.600Z,99566.31
2023-03-31T07:16:58.030Z,99573.81
2023-03-31T07:19:28.568Z,99568.47
2023-03-31T07:22:00.037Z,99568.56
2023-03-31T07:24:30.530Z,99562.19
2023-03-31T07:27:00.838Z,99565.00
2023-03-31T07:29:29.936Z,99554.47
2023-03-31T07:31:59.416Z,99559.69
2023-03-31T07:34:34.986Z,99555.88
2023-03-31T07:37:06.322Z,99561.81
2023-03-31T07:39:40.649Z,99559.13
2023-03-31T07:42:10.035Z,99553.78
2023-03-31T07:44:39.854Z,99525.31
2023-03-31T07:47:08.820Z,99540.72
2023-03-31T07:49:41.181Z,99532.03
2023-03-31T07:52:10.587Z,99503.53
2023-03-31T07:54:40.087Z,99519.50
2023-03-31T07:57:10.322Z,99528.19
2023-03-31T07:59:39.809Z,99519.50
2023-03-31T08:02:09.066Z,99500.72
2023-03-31T08:04:42.224Z,99520.88
2023-03-31T08:07:20.858Z,99513.94
2023-03-31T08:09:51.367Z,99526.22
2023-03-31T08:12:20.545Z,99511.88
2023-03-31T08:14:49.437Z,99470.34
2023-03-31T08:17:18.829Z,99498.06
2023-03-31T08:19:50.310Z,99503.88
2023-03-31T08:22:19.877Z,99493.81
2023-03-31T08:24:49.211Z,99488.34
2023-03-31T08:27:18.812Z,99471.91
2023-03-31T08:29:48.406Z,99485.56
2023-03-31T08:32:17.453Z,99479.94
2023-03-31T08:34:46.632Z,99475.97
2023-03-31T08:37:17.331Z,99505.22
2023-03-31T08:39:46.759Z,99494.38
2023-03-31T08:42:23.318Z,99491.44
2023-03-31T08:44:59.746Z,99485.25
2023-03-31T08:47:33.095Z,99468.56
2023-03-31T08:50:08.024Z,99489.38
2023-03-31T08:52:44.198Z,99481.88
2023-03-31T08:55:19.367Z,99420.03
2023-03-31T08:57:57.045Z,99469.25
2023-03-31T09:00:27.353Z,99461.25
2023-03-31T09:03:03.698Z,99433.25
2023-03-31T09:05:59.560Z,99469.16
2023-03-31T09:08:39.709Z,99459.59
2023-03-31T09:11:16.558Z,99435.84
2023-03-31T09:14:12.128Z,99466.84
2023-03-31T09:16:49.635Z,99466.69
2023-03-31T09:19:22.460Z,99426.59
2023-03-31T09:21:55.563Z,99456.97
2023-03-31T09:24:33.092Z,99390.44
2023-03-31T09:27:07.435Z,99445.91
2023-03-31T09:29:43.654Z,99419.19
2023-03-31T09:32:17.574Z,99432.13
2023-03-31T09:34:48.429Z,99385.38
2023-03-31T09:37:18.034Z,99398.28
2023-03-31T09:39:48.791Z,99374.41
2023-03-31T09:42:19.363Z,99433.38
2023-03-31T09:44:51.342Z,99423.94
2023-03-31T09:47:28.115Z,99320.34
2023-03-31T09:49:58.635Z,99423.03
2023-03-31T09:52:32.884Z,99427.78
2023-03-31T09:55:38.407Z,99420.53
2023-03-31T09:58:16.878Z,99385.38
2023-03-31T10:00:59.696Z,99421.81
2023-03-31T10:03:37.052Z,99401.66
2023-03-31T10:06:11.867Z,99414.88
2023-03-31T10:08:43.986Z,99408.94
2023-03-31T10:11:15.706Z,99402.84
2023-03-31T10:13:50.852Z,99394.50
2023-03-31T10:16:25.185Z,99400.13
2023-03-31T10:19:13.950Z,99395.13
2023-03-31T10:21:48.887Z,99383.38
2023-03-31T10:24:21.882Z,99371.06
2023-03-31T10:26:56.662Z,99369.22
2023-03-31T10:29:34.023Z,99376.13
2023-03-31T10:32:10.264Z,99387.63
2023-03-31T10:34:46.460Z,99377.06
2023-03-31T10:37:20.739Z,99347.91
2023-03-31T10:40:04.104Z,99360.38
2023-03-31T10:42:40.324Z,99368.88
2023-03-31T10:45:20.580Z,99372.59
2023-03-31T10:48:02.067Z,99332.94
2023-03-31T10:50:34.740Z,99342.63
2023-03-31T10:53:06.698Z,99340.63
2023-03-31T10:55:41.131Z,99370.88
2023-03-31T10:58:38.932Z,99369.69
2023-03-31T11:01:22.803Z,99353.63
2023-03-31T11:04:19.856Z,99359.84
2023-03-31T11:06:59.828Z,99353.91
2023-03-31T11:09:52.039Z,99327.88
2023-03-31T11:12:31.308Z,99346.38
2023-03-31T11:15:13.443Z,99341.25
2023-03-31T11:18:00.664Z,99336.88
2023-03-31T11:20:37.508Z,99332.34
2023-03-31T11:23:22.454Z,99322.44
2023-03-31T11:26:05.484Z,99282.59
2023-03-31T11:28:51.501Z,99298.75
2023-03-31T11:31:34.410Z,99297.63
2023-03-31T11:34:37.044Z,99256.09
2023-03-31T11:37:21.517Z,99293.53
2023-03-31T11:44:06.064Z,99239.19
2023-03-31T11:46:42.658Z,99250.09
2023-03-31T11:49:21.566Z,99298.19
2023-03-31T11:52:06.497Z,99274.97
2023-03-31T11:54:38.890Z,99284.53
2023-03-31T11:57:15.610Z,99292.84
2023-03-31T11:59:48.750Z,99291.19
2023-03-31T12:02:46.172Z,99155.94
2023-03-31T12:05:19.209Z,99136.25
2023-03-31T12:07:58.153Z,99253.66
2023-03-31T12:10:37.889Z,99230.34
2023-03-31T12:13:29.581Z,99174.84
2023-03-31T12:16:06.030Z,99242.38
2023-03-31T12:18:43.353Z,99254.03
2023-03-31T12:21:13.427Z,99250.03
2023-03-31T12:23:50.897Z,99205.28
2023-03-31T12:27:03.446Z,99204.50
2023-03-31T12:29:38.762Z,99153.22
2023-03-31T12:32:21.671Z,99181.63
2023-03-31T12:35:04.099Z,99101.25
2023-03-31T12:38:11.897Z,99241.66
2023-03-31T12:41:02.862Z,99246.44
2023-03-31T12:44:03.844Z,99242.09
2023-03-31T12:47:03.814Z,99058.69
2023-03-31T12:49:54.167Z,99158.34
2023-03-31T12:52:34.625Z,99072.63
2023-03-31T12:55:31.024Z,99227.38
2023-03-31T12:58:37.403Z,99229.13
2023-03-31T13:01:11.310Z,99234.53
2023-03-31T13:03:50.622Z,99226.75
2023-03-31T13:06:57.568Z,99189.88
2023-03-31T13:09:54.206Z,99187.47
2023-03-31T13:12:28.327Z,99203.31
2023-03-31T13:15:00.636Z,99196.97
2023-03-31T13:17:32.904Z,99185.59
2023-03-31T13:20:19.357Z,99174.34
2023-03-31T13:22:49.458Z,99191.63
2023-03-31T13:25:39.904Z,99165.25
2023-03-31T13:28:19.947Z,99180.13
2023-03-31T13:30:52.357Z,99189.34
2023-03-31T13:33:26.643Z,99191.06
2023-03-31T13:36:15.556Z,99186.50
2023-03-31T13:38:54.449Z,99147.22
2023-03-31T13:41:43.373Z,99184.50
2023-03-31T13:44:38.315Z,99168.88
2023-03-31T13:47:37.212Z,99180.19
2023-03-31T13:50:39.800Z,99180.56
2023-03-31T13:53:25.136Z,99176.19
2023-03-31T13:56:21.910Z,99168.28
2023-03-31T13:59:21.254Z,99171.41
2023-03-31T14:02:15.867Z,99174.69
2023-03-31T14:05:10.507Z,99144.56
2023-03-31T14:07:45.633Z,99171.47
2023-03-31T14:10:26.489Z,99165.72
2023-03-31T14:13:07.285Z,99168.94
2023-03-31T14:15:40.453Z,99168.72
2023-03-31T14:18:13.970Z,99169.41
2023-03-31T14:20:48.388Z,99183.06
2023-03-31T14:23:35.750Z,99155.19
2023-03-31T14:26:08.997Z,99170.06
2023-03-31T14:29:03.848Z,99112.75
2023-03-31T14:31:40.624Z,99175.78
2023-03-31T14:34:25.042Z,99117.97
2023-03-31T14:37:00.953Z,99175.28
2023-03-31T14:39:38.317Z,99163.75
2023-03-31T14:42:13.733Z,99163.84
2023-03-31T14:44:46.341Z,99162.63
2023-03-31T14:47:23.155Z,99155.94
2023-03-31T14:50:02.288Z,99165.06
2023-03-31T14:52:33.734Z,99161.53
2023-03-31T14:55:03.262Z,99166.91
2023-03-31T14:57:36.308Z,99161.44
2023-03-31T15:00:09.173Z,99172.50
2023-03-31T15:02:43.700Z,99175.16
2023-03-31T15:05:24.913Z,99165.94
2023-03-31T15:07:59.037Z,99167.34
2023-03-31T15:10:34.678Z,99169.69
2023-03-31T15:13:09.123Z,99162.44
2023-03-31T15:15:38.957Z,99174.63
2023-03-31T15:18:13.219Z,99170.69
2023-03-31T15:20:43.727Z,99155.00
2023-03-31T15:23:25.060Z,99150.63
2023-03-31T15:25:58.488Z,99177.09
2023-03-31T15:28:34.420Z,99184.22
2023-03-31T15:31:10.209Z,99152.75
2023-03-31T15:33:42.525Z,99174.59
2023-03-31T15:36:13.755Z,99195.88
2023-03-31T15:38:43.750Z,99178.91
2023-03-31T15:41:23.414Z,99178.63
2023-03-31T15:44:06.788Z,99182.97
2023-03-31T15:46:59.280Z,99181.47
2023-03-31T15:49:31.408Z,99185.16
2023-03-31T15:52:03.380Z,99189.66
2023-03-31T15:54:38.521Z,99171.50
2023-03-31T15:57:09.948Z,99183.53
2023-03-31T15:59:55.571Z,99148.81
2023-03-31T16:02:28.921Z,99152.13
2023-03-31T16:05:08.063Z,99170.66
2023-03-31T16:07:47.429Z,99169.13
2023-03-31T16:10:34.930Z,99143.38
2023-03-31T16:13:16.405Z,99152.97
2023-03-31T16:15:49.566Z,99148.22
2023-03-31T16:18:29.191Z,99177.13
2023-03-31T16:21:07.083Z,99167.06
2023-03-31T16:23:44.550Z,99167.03
2023-03-31T16:26:14.471Z,99171.78
2023-03-31T16:28:51.678Z,99175.47
2023-03-31T16:31:32.596Z,99167.19
2023-03-31T16:34:03.700Z,99168.44
2023-03-31T16:36:35.655Z,99165.94
2023-03-31T16:39:09.170Z,99170.44
2023-03-31T16:41:39.391Z,99133.19
2023-03-31T16:44:08.918Z,99170.28
2023-03-31T16:46:38.081Z,99136.09
2023-03-31T16:49:07.528Z,99151.66
2023-03-31T16:51:37.969Z,99172.38
2023-03-31T16:54:08.065Z,99157.22
2023-03-31T16:56:37.395Z,99165.38
2023-03-31T16:59:23.525Z,99162.56
2023-03-31T17:01:54.684Z,99165.09
2023-03-31T17:04:25.420Z,99143.53
2023-03-31T17:06:59.125Z,99165.63
2023-03-31T17:09:28.798Z,99163.38
2023-03-31T17:11:57.700Z,99135.13
2023-03-31T17:14:29.225Z,99169.44
2023-03-31T17:17:02.259Z,99089.34
2023-03-31T17:19:39.892Z,99172.34
2023-03-31T17:22:10.865Z,99137.91
2023-03-31T17:24:40.705Z,99169.59
2023-03-31T17:27:09.862Z,99126.47
2023-03-31T17:29:39.571Z,99166.63
2023-03-31T17:32:10.227Z,99153.59
2023-03-31T17:34:42.753Z,99127.53
2023-03-31T17:37:16.919Z,99114.13
2023-03-31T17:39:46.789Z,99162.59
2023-03-31T17:42:16.811Z,99141.56
2023-03-31T17:44:48.500Z,99150.81
2023-03-31T17:47:19.062Z,99107.44
2023-03-31T17:49:48.151Z,99165.94
2023-03-31T17:52:18.930Z,99144.66
2023-03-31T17:54:50.306Z,99131.50
2023-03-31T17:57:20.744Z,99152.63
2023-03-31T17:59:50.606Z,99057.28
2023-03-31T18:02:21.009Z,98990.63
2023-03-31T18:04:51.422Z,99157.25
2023-03-31T18:07:23.515Z,99042.16
2023-03-31T18:09:52.988Z,99128.25
2023-03-31T18:12:22.083Z,99170.56
2023-03-31T18:14:51.909Z,99159.34
2023-03-31T18:17:21.232Z,99166.78
2023-03-31T18:19:50.802Z,99165.53
2023-03-31T18:22:21.635Z,99166.19
2023-03-31T18:24:51.595Z,99122.81
2023-03-31T18:27:23.180Z,99152.47
2023-03-31T18:29:56.805Z,98980.06
2023-03-31T18:32:29.058Z,99155.16
2023-03-31T18:35:01.158Z,99056.75
2023-03-31T18:37:32.022Z,99122.25
2023-03-31T18:40:02.699Z,99126.97
2023-03-31T18:42:33.392Z,99137.34
2023-03-31T18:45:08.921Z,99131.19
2023-03-31T18:47:38.563Z,99135.28
2023-03-31T18:50:10.766Z,99032.97
2023-03-31T18:52:44.563Z,99070.75
2023-03-31T18:55:14.769Z,99143.81
2023-03-31T18:57:45.576Z,98994.88
2023-03-31T19:00:16.748Z,99154.16
2023-03-31T19:02:47.053Z,99120.72
2023-03-31T19:05:19.239Z,99052.97
2023-03-31T19:07:50.181Z,99159.19
2023-03-31T19:10:20.865Z,99077.47
2023-03-31T19:12:55.162Z,99135.97
2023-03-31T19:15:54.404Z,99151.09
2023-03-31T19:18:21.971Z,98970.00
2023-03-31T19:20:52.040Z,99102.94
2023-03-31T19:23:25.981Z,99137.66
2023-03-31T19:25:56.066Z,99112.16
2023-03-31T19:28:27.585Z,99084.31
2023-03-31T19:30:57.915Z,99129.50
2023-03-31T19:33:27.764Z,99115.81
2023-03-31T19:35:58.025Z,99133.69
2023-03-31T19:38:32.084Z,99133.59
2023-03-31T19:41:04.093Z,99133.84
2023-03-31T19:43:34.258Z,99109.66
2023-03-31T19:46:06.210Z,99084.75
2023-03-31T19:48:38.160Z,99122.66
2023-03-31T19:51:11.475Z,99139.63
2023-03-31T19:53:42.282Z,99125.63
2023-03-31T19:56:12.908Z,99137.34
2023-03-31T19:58:47.188Z,99100.28
2023-03-31T20:01:18.503Z,99134.72
2023-03-31T20:03:52.729Z,99060.41
2023-03-31T20:06:29.290Z,99120.28
2023-03-31T20:09:03.526Z,99116.63
2023-03-31T20:11:33.554Z,99114.38
2023-03-31T20:14:03.337Z,99112.41
2023-03-31T20:16:34.764Z,99117.88
2023-03-31T20:19:06.444Z,99093.53
2023-03-31T20:21:39.075Z,99079.16
2023-03-31T20:24:15.744Z,99117.09
2023-03-31T20:26:47.809Z,99115.81
2023-03-31T20:29:16.917Z,99129.78
2023-03-31T20:31:46.201Z,99121.13
2023-03-31T20:34:25.085Z,99112.22
2023-03-31T20:36:54.234Z,99120.19
2023-03-31T20:39:25.087Z,99087.13
2023-03-31T20:41:55.285Z,99115.66
2023-03-31T20:44:26.354Z,99094.72
2023-03-31T20:47:00.620Z,99110.28
2023-03-31T20:49:30.521Z,99101.09
2023-03-31T20:52:00.437Z,99097.59
2023-03-31T20:54:34.649Z,99133.13
2023-03-31T20:57:05.900Z,99130.63
2023-03-31T20:59:35.315Z,99111.91
2023-03-31T21:02:04.790Z,99138.88
2023-03-31T21:04:34.293Z,99136.91
2023-03-31T21:07:03.677Z,99131.16
2023-03-31T21:09:43.464Z,99022.75
2023-03-31T21:12:12.893Z,99115.22
2023-03-31T21:14:41.870Z,99124.34
2023-03-31T21:17:11.021Z,99115.22
2023-03-31T21:19:41.985Z,99100.97
2023-03-31T21:22:11.345Z,99097.19
2023-03-31T21:24:44.853Z,99113.53
2023-03-31T21:27:14.014Z,99121.69
2023-03-31T21:29:43.717Z,99115.66
2023-03-31T21:32:13.530Z,99116.09
2023-03-31T21:34:42.931Z,99090.63
2023-03-31T21:37:12.314Z,99119.44
2023-03-31T21:39:41.541Z,99118.31
2023-03-31T21:42:12.466Z,99121.97
2023-03-31T21:44:42.488Z,99106.69
2023-03-31T21:47:12.399Z,99118.31
2023-03-31T21:49:43.357Z,99113.13
2023-03-31T21:52:15.607Z,99115.22
2023-03-31T21:54:45.801Z,99112.75
2023-03-31T21:57:18.965Z,99115.94
2023-03-31T21:59:48.171Z,99107.66
2023-03-31T22:02:17.472Z,99107.09
2023-03-31T22:04:46.975Z,99114.38
2023-03-31T22:07:16.732Z,99120.53
2023-03-31T22:09:45.961Z,99087.66
2023-03-31T22:12:17.693Z,99128.13
2023-03-31T22:14:47.122Z,99124.06
2023-03-31T22:17:18.560Z,99133.03
2023-03-31T22:19:51.440Z,99121.41
2023-03-31T22:22:21.068Z,99118.31
2023-03-31T22:24:50.467Z,99113.53
2023-03-31T22:27:21.076Z,99114.09
2023-03-31T22:29:57.959Z,99091.97
2023-03-31T22:32:27.279Z,99116.53
2023-03-31T22:34:56.429Z,99114.41
2023-03-31T22:37:28.077Z,99116.38
2023-03-31T22:39:59.741Z,99079.84
2023-03-31T22:42:30.407Z,99098.72
2023-03-31T22:45:03.013Z,99074.09
2023-03-31T22:47:55.685Z,99072.13
2023-03-31T22:50:26.179Z,99057.88
2023-03-31T22:52:55.746Z,99054.22
2023-03-31T22:55:25.391Z,99017.00
2023-03-31T22:57:57.115Z,99127.16
2023-03-31T23:00:30.734Z,99098.44
2023-03-31T23:03:01.459Z,99107.09
2023-03-31T23:05:33.404Z,99074.91
2023-03-31T23:08:03.080Z,99115.09
2023-03-31T23:10:32.279Z,99110.47
2023-03-31T23:13:03.836Z,99108.59
2023-03-31T23:15:40.979Z,99116.47
2023-03-31T23:18:10.624Z,99117.22
2023-03-31T23:20:42.837Z,99126.94
2023-03-31T23:23:12.129Z,99128.47
2023-03-31T23:25:41.175Z,99077.38
2023-03-31T23:28:12.070Z,99126.44
2023-03-31T23:30:41.367Z,99118.59
2023-03-31T23:33:10.681Z,99131.97
2023-03-31T23:35:44.133Z,99132.59
2023-03-31T23:38:14.379Z,99137.19
2023-03-31T23:40:44.821Z,99130.47
2023-03-31T23:43:16.583Z,99133.97
2023-03-31T23:45:50.435Z,99091.41
2023-03-31T23:48:23.367Z,99023.06
2023-03-31T23:50:52.482Z,99115.53
2023-03-31T23:53:28.787Z,99116.38
2023-03-31T23:55:59.958Z,99126.00
2023-03-31T23:58:32.698Z,99117.91
